createdAt,value
2017-06-02T00:00:14.254Z,36.60
2017-06-02T00:01:15.688Z,36.48
2017-06-02T00:02:17.122Z,36.48
2017-06-02T00:03:18.553Z,36.77
2017-06-02T00:04:19.996Z,36.68
2017-06-02T00:05:21.439Z,36.68
2017-06-02T00:06:22.879Z,36.58
2017-06-02T00:07:24.317Z,36.87
2017-06-02T00:08:25.751Z,36.68
2017-06-02T00:09:27.192Z,36.77
2017-06-02T00:10:28.629Z,36.97
2017-06-02T00:11:30.068Z,37.07
2017-06-02T00:12:31.501Z,37.35
2017-06-02T00:13:32.932Z,36.97
2017-06-02T00:14:34.364Z,37.16
2017-06-02T00:15:35.803Z,36.97
2017-06-02T00:16:37.248Z,36.87
2017-06-02T00:17:38.684Z,37.07
2017-06-02T00:18:40.120Z,36.87
2017-06-02T00:19:41.562Z,37.07
2017-06-02T00:20:42.997Z,36.77
2017-06-02T00:21:44.492Z,36.87
2017-06-02T00:22:45.866Z,36.97
2017-06-02T00:23:47.307Z,36.87
2017-06-02T00:24:48.744Z,36.77
2017-06-02T00:25:50.188Z,36.97
2017-06-02T00:26:51.621Z,36.77
2017-06-02T00:27:53.057Z,36.87
2017-06-02T00:28:54.499Z,36.87
2017-06-02T00:29:55.943Z,36.97
2017-06-02T00:30:57.378Z,36.97
2017-06-02T00:31:58.821Z,37.07
2017-06-02T00:33:00.262Z,36.97
2017-06-02T00:34:01.691Z,36.87
2017-06-02T00:35:03.126Z,37.07
2017-06-02T00:36:04.565Z,36.87
2017-06-02T00:37:06.007Z,36.97
2017-06-02T00:38:07.444Z,36.97
2017-06-02T00:39:08.887Z,36.87
2017-06-02T00:40:10.323Z,36.77
2017-06-02T00:41:11.765Z,36.68
2017-06-02T00:42:13.202Z,37.07
2017-06-02T00:43:14.641Z,36.87
2017-06-02T00:44:16.084Z,36.77
2017-06-02T00:45:17.515Z,36.58
2017-06-02T00:46:18.954Z,36.87
2017-06-02T00:47:20.392Z,36.77
2017-06-02T00:48:21.839Z,36.87
2017-06-02T00:49:23.273Z,36.77
2017-06-02T00:50:24.711Z,36.97
2017-06-02T00:51:26.147Z,36.77
2017-06-02T00:52:27.591Z,36.87
2017-06-02T00:53:29.030Z,37.07
2017-06-02T00:54:30.476Z,36.87
2017-06-02T00:55:31.905Z,36.97
2017-06-02T00:56:33.347Z,37.16
2017-06-02T00:57:34.786Z,37.16
2017-06-02T00:58:36.225Z,37.16
2017-06-02T00:59:37.659Z,36.87
2017-06-02T01:00:39.089Z,36.97
2017-06-02T01:01:40.587Z,37.07
2017-06-02T01:02:42.021Z,36.97
2017-06-02T01:03:43.460Z,37.26
2017-06-02T01:04:44.893Z,37.35
2017-06-02T01:05:46.333Z,37.16
2017-06-02T01:06:47.770Z,36.97
2017-06-02T01:07:49.214Z,36.77
2017-06-02T01:08:50.687Z,37.16
2017-06-02T01:09:52.119Z,37.07
2017-06-02T01:10:53.562Z,37.07
2017-06-02T01:11:54.999Z,37.07
2017-06-02T01:12:56.440Z,37.34
2017-06-02T01:13:57.878Z,37.16
2017-06-02T01:14:59.323Z,36.77
2017-06-02T01:16:00.765Z,36.66
2017-06-02T01:17:02.205Z,36.87
2017-06-02T01:18:03.651Z,36.85
2017-06-02T01:19:05.121Z,36.77
2017-06-02T01:20:06.552Z,37.16
2017-06-02T01:21:07.990Z,37.16
2017-06-02T01:22:09.425Z,37.15
2017-06-02T01:23:10.865Z,36.95
2017-06-02T01:24:12.303Z,37.07
2017-06-02T01:25:13.733Z,37.07
2017-06-02T01:26:15.177Z,36.77
2017-06-02T01:27:16.622Z,37.07
2017-06-02T01:28:18.059Z,36.85
2017-06-02T01:29:19.501Z,36.95
2017-06-02T01:30:20.945Z,36.85
2017-06-02T01:31:22.386Z,36.85
2017-06-02T01:32:23.814Z,36.85
2017-06-02T01:33:25.253Z,36.85
2017-06-02T01:34:26.701Z,37.15
2017-06-02T01:35:28.134Z,36.95
2017-06-02T01:36:29.567Z,37.24
2017-06-02T01:37:31.089Z,37.63
2017-06-02T01:38:32.522Z,37.63
2017-06-02T01:39:33.955Z,37.43
2017-06-02T01:40:35.391Z,37.43
2017-06-02T01:41:36.866Z,37.43
2017-06-02T01:42:38.333Z,37.43
2017-06-02T01:43:39.767Z,37.53
2017-06-02T01:44:41.206Z,37.53
2017-06-02T01:45:42.643Z,37.63
2017-06-02T01:46:44.074Z,36.95
2017-06-02T01:47:45.523Z,37.43
2017-06-02T01:48:46.981Z,37.53
2017-06-02T01:49:48.418Z,37.53
2017-06-02T01:50:49.857Z,37.53
2017-06-02T01:51:51.295Z,37.53
2017-06-02T01:52:52.738Z,37.43
2017-06-02T01:53:54.181Z,37.53
2017-06-02T01:54:55.613Z,37.53
2017-06-02T01:55:57.087Z,37.53
2017-06-02T01:56:58.530Z,37.43
2017-06-02T01:57:59.964Z,37.34
2017-06-02T01:59:01.415Z,37.53
2017-06-02T02:00:02.886Z,37.63
2017-06-02T02:01:04.320Z,37.34
2017-06-02T02:02:05.755Z,37.53
2017-06-02T02:03:07.195Z,37.63
2017-06-02T02:04:08.633Z,37.34
2017-06-02T02:05:10.071Z,37.53
2017-06-02T02:06:11.509Z,37.53
2017-06-02T02:07:12.974Z,37.53
2017-06-02T02:08:14.407Z,37.73
2017-06-02T02:09:15.842Z,36.76
2017-06-02T02:10:17.279Z,37.05
2017-06-02T02:11:18.717Z,36.95
2017-06-02T02:12:20.155Z,36.76
2017-06-02T02:13:21.595Z,36.76
2017-06-02T02:14:23.034Z,37.24
2017-06-02T02:15:24.473Z,36.85
2017-06-02T02:16:25.911Z,37.34
2017-06-02T02:17:27.353Z,37.43
2017-06-02T02:18:28.795Z,37.34
2017-06-02T02:19:30.258Z,37.53
2017-06-02T02:20:31.698Z,37.51
2017-06-02T02:21:33.131Z,37.51
2017-06-02T02:22:34.565Z,37.51
2017-06-02T02:23:36.001Z,37.51
2017-06-02T02:24:37.436Z,37.43
2017-06-02T02:25:38.950Z,37.51
2017-06-02T02:26:40.411Z,37.61
2017-06-02T02:27:41.854Z,37.13
2017-06-02T02:28:43.286Z,36.83
2017-06-02T02:29:44.725Z,37.13
2017-06-02T02:30:46.156Z,37.03
2017-06-02T02:31:47.606Z,37.61
2017-06-02T02:32:49.056Z,37.51
2017-06-02T02:33:50.501Z,37.61
2017-06-02T02:34:51.934Z,37.51
2017-06-02T02:35:53.367Z,37.51
2017-06-02T02:36:54.804Z,37.51
2017-06-02T02:37:56.307Z,37.51
2017-06-02T02:38:57.742Z,37.41
2017-06-02T02:39:59.178Z,37.41
2017-06-02T02:41:00.613Z,37.41
2017-06-02T02:42:02.049Z,37.41
2017-06-02T02:43:03.489Z,37.32
2017-06-02T02:44:04.919Z,37.41
2017-06-02T02:45:06.358Z,37.51
2017-06-02T02:46:07.789Z,37.51
2017-06-02T02:47:09.228Z,37.32
2017-06-02T02:48:10.661Z,37.41
2017-06-02T02:49:12.096Z,37.23
2017-06-02T02:50:13.533Z,37.32
2017-06-02T02:51:15.035Z,37.32
2017-06-02T02:52:16.492Z,37.32
2017-06-02T02:53:17.936Z,37.32
2017-06-02T02:54:19.378Z,37.51
2017-06-02T02:55:20.823Z,37.61
2017-06-02T02:56:22.257Z,37.61
2017-06-02T02:57:23.688Z,37.61
2017-06-02T02:58:25.165Z,37.61
2017-06-02T02:59:26.603Z,37.71
2017-06-02T03:00:28.040Z,37.23
2017-06-02T03:01:29.484Z,37.32
2017-06-02T03:02:30.929Z,37.32
2017-06-02T03:03:32.376Z,37.23
2017-06-02T03:04:33.808Z,37.32
2017-06-02T03:05:35.239Z,37.51
2017-06-02T03:06:36.698Z,37.61
2017-06-02T03:07:38.141Z,37.61
2017-06-02T03:08:39.578Z,37.32
2017-06-02T03:09:41.019Z,37.41
2017-06-02T03:10:42.485Z,37.41
2017-06-02T03:11:43.919Z,37.13
2017-06-02T03:12:45.360Z,37.41
2017-06-02T03:13:46.795Z,37.32
2017-06-02T03:14:48.228Z,37.23
2017-06-02T03:15:49.662Z,37.23
2017-06-02T03:16:51.118Z,37.51
2017-06-02T03:17:52.546Z,37.81
2017-06-02T03:18:53.978Z,37.71
2017-06-02T03:19:55.412Z,37.41
2017-06-02T03:20:56.854Z,37.41
2017-06-02T03:21:58.291Z,37.23
2017-06-02T03:23:00.452Z,37.41
2017-06-02T03:24:01.885Z,37.71
2017-06-02T03:25:03.321Z,37.81
2017-06-02T03:26:04.758Z,37.81
2017-06-02T03:27:06.193Z,37.71
2017-06-02T03:28:07.628Z,37.51
2017-06-02T03:29:09.060Z,37.41
2017-06-02T03:30:10.495Z,37.13
2017-06-02T03:31:11.932Z,37.41
2017-06-02T03:32:13.368Z,37.23
2017-06-02T03:33:14.806Z,37.30
2017-06-02T03:34:16.237Z,37.32
2017-06-02T03:35:17.670Z,37.21
2017-06-02T03:36:19.108Z,37.51
2017-06-02T03:37:20.543Z,37.30
2017-06-02T03:38:21.976Z,37.41
2017-06-02T03:39:23.410Z,37.30
2017-06-02T03:40:24.843Z,37.30
2017-06-02T03:41:26.271Z,37.61
2017-06-02T03:42:27.704Z,37.79
2017-06-02T03:43:29.146Z,37.61
2017-06-02T03:44:30.580Z,37.59
2017-06-02T03:45:32.012Z,37.61
2017-06-02T03:46:33.456Z,37.41
2017-06-02T03:47:34.894Z,37.49
2017-06-02T03:48:36.323Z,37.69
2017-06-02T03:49:37.757Z,37.88
2017-06-02T03:50:39.193Z,38.00
2017-06-02T03:51:40.626Z,37.98
2017-06-02T03:52:42.066Z,37.49
2017-06-02T03:53:43.498Z,37.90
2017-06-02T03:54:44.931Z,37.79
2017-06-02T03:55:46.366Z,37.79
2017-06-02T03:56:47.806Z,37.88
2017-06-02T03:57:49.247Z,37.98
2017-06-02T03:58:50.689Z,37.98
2017-06-02T03:59:52.128Z,38.09
2017-06-02T04:00:53.562Z,37.79
2017-06-02T04:01:54.997Z,38.27
2017-06-02T04:02:56.432Z,38.17
2017-06-02T04:03:57.866Z,37.88
2017-06-02T04:04:59.304Z,37.88
2017-06-02T04:06:00.746Z,38.17
2017-06-02T04:07:02.181Z,37.98
2017-06-02T04:08:03.624Z,37.79
2017-06-02T04:09:05.052Z,37.69
2017-06-02T04:10:06.487Z,37.79
2017-06-02T04:11:07.924Z,37.59
2017-06-02T04:12:09.356Z,37.69
2017-06-02T04:13:10.790Z,37.49
2017-06-02T04:14:12.226Z,37.59
2017-06-02T04:15:13.658Z,37.69
2017-06-02T04:16:15.095Z,37.69
2017-06-02T04:17:16.532Z,37.79
2017-06-02T04:18:17.967Z,37.59
2017-06-02T04:19:19.402Z,37.69
2017-06-02T04:20:20.839Z,37.98
2017-06-02T04:21:22.277Z,37.88
2017-06-02T04:22:23.714Z,37.98
2017-06-02T04:23:25.146Z,37.88
2017-06-02T04:24:26.583Z,38.27
2017-06-02T04:25:28.016Z,38.17
2017-06-02T04:26:29.457Z,38.37
2017-06-02T04:27:30.899Z,38.17
2017-06-02T04:28:32.391Z,38.37
2017-06-02T04:29:33.787Z,38.27
2017-06-02T04:30:35.222Z,38.27
2017-06-02T04:31:36.662Z,38.07
2017-06-02T04:32:38.093Z,38.17
2017-06-02T04:33:39.541Z,38.17
2017-06-02T04:34:40.980Z,38.17
2017-06-02T04:35:42.416Z,38.17
2017-06-02T04:36:43.861Z,38.07
2017-06-02T04:37:45.294Z,38.07
2017-06-02T04:38:46.727Z,38.46
2017-06-02T04:39:48.164Z,38.17
2017-06-02T04:40:49.604Z,37.79
2017-06-02T04:41:51.048Z,37.79
2017-06-02T04:42:52.491Z,37.79
2017-06-02T04:43:53.929Z,37.69
2017-06-02T04:44:56.334Z,37.69
2017-06-02T04:45:57.763Z,37.79
2017-06-02T04:46:59.201Z,37.79
2017-06-02T04:48:00.634Z,37.69
2017-06-02T04:49:02.067Z,37.69
2017-06-02T04:50:03.505Z,37.88
2017-06-02T04:51:04.943Z,37.87
2017-06-02T04:52:06.382Z,37.49
2017-06-02T04:53:07.814Z,37.69
2017-06-02T04:54:09.260Z,37.79
2017-06-02T04:55:10.702Z,37.79
2017-06-02T04:56:12.142Z,37.79
2017-06-02T04:57:13.577Z,37.77
2017-06-02T04:58:15.020Z,37.69
2017-06-02T04:59:16.453Z,37.98
2017-06-02T05:00:17.890Z,37.98
2017-06-02T05:01:19.326Z,37.57
2017-06-02T05:02:20.776Z,37.79
2017-06-02T05:03:22.216Z,37.49
2017-06-02T05:04:23.657Z,37.87
2017-06-02T05:05:25.147Z,37.96
2017-06-02T05:06:26.584Z,37.87
2017-06-02T05:07:28.016Z,37.87
2017-06-02T05:08:29.455Z,37.96
2017-06-02T05:09:30.899Z,37.77
2017-06-02T05:10:32.339Z,37.77
2017-06-02T05:11:33.780Z,37.77
2017-06-02T05:12:35.217Z,38.15
2017-06-02T05:13:36.666Z,38.25
2017-06-02T05:14:38.103Z,38.06
2017-06-02T05:15:39.542Z,37.77
2017-06-02T05:16:40.985Z,38.06
2017-06-02T05:17:42.417Z,38.06
2017-06-02T05:18:43.853Z,38.15
2017-06-02T05:19:45.294Z,38.15
2017-06-02T05:20:46.740Z,38.83
2017-06-02T05:21:48.173Z,39.03
2017-06-02T05:22:49.611Z,38.64
2017-06-02T05:23:51.066Z,38.93
2017-06-02T05:24:52.501Z,38.54
2017-06-02T05:25:53.936Z,38.73
2017-06-02T05:26:55.373Z,38.83
2017-06-02T05:27:56.815Z,38.64
2017-06-02T05:28:58.256Z,38.73
2017-06-02T05:29:59.699Z,38.73
2017-06-02T05:31:01.157Z,38.35
2017-06-02T05:32:02.599Z,38.15
2017-06-02T05:33:04.035Z,38.15
2017-06-02T05:34:05.477Z,37.87
2017-06-02T05:35:06.920Z,37.77
2017-06-02T05:36:08.422Z,37.87
2017-06-02T05:37:09.858Z,37.67
2017-06-02T05:38:11.296Z,37.57
2017-06-02T05:39:12.805Z,37.57
2017-06-02T05:40:14.248Z,37.48
2017-06-02T05:41:15.683Z,37.38
2017-06-02T05:42:17.122Z,37.48
2017-06-02T05:43:18.555Z,37.87
2017-06-02T05:44:19.995Z,37.87
2017-06-02T05:45:21.439Z,37.87
2017-06-02T05:46:22.927Z,37.77
2017-06-02T05:47:24.361Z,37.87
2017-06-02T05:48:25.802Z,37.87
2017-06-02T05:49:27.233Z,37.77
2017-06-02T05:50:28.668Z,37.96
2017-06-02T05:51:30.112Z,37.87
2017-06-02T05:52:31.548Z,37.87
2017-06-02T05:53:32.989Z,38.04
2017-06-02T05:54:34.511Z,38.06
2017-06-02T05:55:35.949Z,38.15
2017-06-02T05:56:37.391Z,38.15
2017-06-02T05:57:38.826Z,38.35
2017-06-02T05:58:40.263Z,38.15
2017-06-02T05:59:41.693Z,38.64
2017-06-02T06:00:43.126Z,38.25
2017-06-02T06:01:44.576Z,38.25
2017-06-02T06:02:46.013Z,38.64
2017-06-02T06:03:47.449Z,38.91
2017-06-02T06:04:48.884Z,38.73
2017-06-02T06:05:50.322Z,39.03
2017-06-02T06:06:51.764Z,39.29
2017-06-02T06:07:53.207Z,39.41
2017-06-02T06:08:54.644Z,38.91
2017-06-02T06:09:56.080Z,38.93
2017-06-02T06:10:57.520Z,38.91
2017-06-02T06:11:58.956Z,39.03
2017-06-02T06:13:00.395Z,39.20
2017-06-02T06:14:01.830Z,39.22
2017-06-02T06:15:03.269Z,39.32
2017-06-02T06:16:04.717Z,39.32
2017-06-02T06:17:06.153Z,39.29
2017-06-02T06:18:07.592Z,39.29
2017-06-02T06:19:09.033Z,39.01
2017-06-02T06:20:10.469Z,39.22
2017-06-02T06:21:11.968Z,39.49
2017-06-02T06:22:13.344Z,39.20
2017-06-02T06:23:14.787Z,40.65
2017-06-02T06:24:16.225Z,40.56
2017-06-02T06:25:17.663Z,40.00
2017-06-02T06:26:19.096Z,40.00
2017-06-02T06:27:20.527Z,39.51
2017-06-02T06:28:21.961Z,39.88
2017-06-02T06:29:23.397Z,40.09
2017-06-02T06:30:24.829Z,40.00
2017-06-02T06:31:26.266Z,39.80
2017-06-02T06:32:27.708Z,39.70
2017-06-02T06:33:29.142Z,39.61
2017-06-02T06:34:30.582Z,39.41
2017-06-02T06:35:32.014Z,39.97
2017-06-02T06:36:33.454Z,40.00
2017-06-02T06:37:34.897Z,39.90
2017-06-02T06:38:36.333Z,40.09
2017-06-02T06:39:37.764Z,39.90
2017-06-02T06:40:39.201Z,39.80
2017-06-02T06:41:40.644Z,39.80
2017-06-02T06:42:42.075Z,40.00
2017-06-02T06:43:43.509Z,40.00
2017-06-02T06:44:44.940Z,39.80
2017-06-02T06:45:46.379Z,39.80
2017-06-02T06:46:47.816Z,40.00
2017-06-02T06:47:49.258Z,40.17
2017-06-02T06:48:50.691Z,40.00
2017-06-02T06:49:52.132Z,39.80
2017-06-02T06:50:53.564Z,40.28
2017-06-02T06:51:55.003Z,39.97
2017-06-02T06:52:56.445Z,40.48
2017-06-02T06:53:57.881Z,41.83
2017-06-02T06:54:59.313Z,41.55
2017-06-02T06:56:00.747Z,41.35
2017-06-02T06:57:02.183Z,41.45
2017-06-02T06:58:04.584Z,41.55
2017-06-02T06:59:06.029Z,41.55
2017-06-02T07:00:07.463Z,41.45
2017-06-02T07:01:08.896Z,41.14
2017-06-02T07:02:10.337Z,41.25
2017-06-02T07:03:11.776Z,41.06
2017-06-02T07:04:13.217Z,40.86
2017-06-02T07:05:14.661Z,40.86
2017-06-02T07:06:16.097Z,40.96
2017-06-02T07:07:17.539Z,40.86
2017-06-02T07:08:18.972Z,40.86
2017-06-02T07:09:20.411Z,40.77
2017-06-02T07:10:21.852Z,41.04
2017-06-02T07:11:23.284Z,40.86
2017-06-02T07:12:24.730Z,40.86
2017-06-02T07:13:26.172Z,41.16
2017-06-02T07:14:27.607Z,40.84
2017-06-02T07:15:29.042Z,40.77
2017-06-02T07:16:30.488Z,41.16
2017-06-02T07:17:31.919Z,40.86
2017-06-02T07:18:33.357Z,41.06
2017-06-02T07:19:34.802Z,41.16
2017-06-02T07:20:36.239Z,41.16
2017-06-02T07:21:37.675Z,40.86
2017-06-02T07:22:39.107Z,41.06
2017-06-02T07:23:40.543Z,40.86
2017-06-02T07:24:42.021Z,40.86
2017-06-02T07:25:43.457Z,40.96
2017-06-02T07:26:44.906Z,40.77
2017-06-02T07:27:46.351Z,41.83
2017-06-02T07:28:47.787Z,41.55
2017-06-02T07:29:49.226Z,41.06
2017-06-02T07:30:50.666Z,41.45
2017-06-02T07:31:52.097Z,41.16
2017-06-02T07:32:53.537Z,41.93
2017-06-02T07:33:54.972Z,42.51
2017-06-02T07:34:56.408Z,42.51
2017-06-02T07:35:57.846Z,41.93
2017-06-02T07:36:59.285Z,41.64
2017-06-02T07:38:00.724Z,41.83
2017-06-02T07:39:02.163Z,41.83
2017-06-02T07:40:03.604Z,41.83
2017-06-02T07:41:05.045Z,41.83
2017-06-02T07:42:06.489Z,41.45
2017-06-02T07:43:07.926Z,41.55
2017-06-02T07:44:09.362Z,41.45
2017-06-02T07:45:10.801Z,43.09
2017-06-02T07:46:12.242Z,41.45
2017-06-02T07:47:13.684Z,41.08
2017-06-02T07:48:15.119Z,41.16
2017-06-02T07:49:16.560Z,40.99
2017-06-02T07:50:18.005Z,40.79
2017-06-02T07:51:19.953Z,40.99
2017-06-02T07:52:21.389Z,40.79
2017-06-02T07:53:22.934Z,41.86
2017-06-02T07:54:24.379Z,41.08
2017-06-02T07:55:25.823Z,41.27
2017-06-02T07:56:27.263Z,40.79
2017-06-02T07:57:28.707Z,41.66
2017-06-02T07:58:30.146Z,41.66
2017-06-02T07:59:31.579Z,41.68
2017-06-02T08:00:33.060Z,40.99
2017-06-02T08:01:34.499Z,41.17
2017-06-02T08:02:35.933Z,40.91
2017-06-02T08:03:37.376Z,40.81
2017-06-02T08:04:38.809Z,40.52
2017-06-02T08:05:40.251Z,40.81
2017-06-02T08:06:41.691Z,40.61
2017-06-02T08:07:43.127Z,40.71
2017-06-02T08:08:44.568Z,40.71
2017-06-02T08:09:46.012Z,40.52
2017-06-02T08:10:47.450Z,40.13
2017-06-02T08:11:48.898Z,39.86
2017-06-02T08:12:50.329Z,39.47
2017-06-02T08:13:51.771Z,39.47
2017-06-02T08:14:53.212Z,39.57
2017-06-02T08:15:54.699Z,39.08
2017-06-02T08:16:56.141Z,38.99
2017-06-02T08:17:57.594Z,39.28
2017-06-02T08:18:59.034Z,39.28
2017-06-02T08:20:00.496Z,38.89
2017-06-02T08:21:01.949Z,39.37
2017-06-02T08:22:03.379Z,39.18
2017-06-02T08:23:04.829Z,39.18
2017-06-02T08:24:06.268Z,39.18
2017-06-02T08:25:07.713Z,38.99
2017-06-02T08:26:09.145Z,39.08
2017-06-02T08:27:10.581Z,38.99
2017-06-02T08:28:12.021Z,39.08
2017-06-02T08:29:13.469Z,38.91
2017-06-02T08:30:14.901Z,38.71
2017-06-02T08:31:16.342Z,38.81
2017-06-02T08:32:17.794Z,38.70
2017-06-02T08:33:19.229Z,38.99
2017-06-02T08:34:21.167Z,39.01
2017-06-02T08:35:22.606Z,39.01
2017-06-02T08:36:24.042Z,38.81
2017-06-02T08:37:25.483Z,38.42
2017-06-02T08:38:26.923Z,38.13
2017-06-02T08:39:28.359Z,38.13
2017-06-02T08:40:29.797Z,38.04
2017-06-02T08:41:31.229Z,38.13
2017-06-02T08:42:32.670Z,38.04
2017-06-02T08:43:34.124Z,37.94
2017-06-02T08:44:35.554Z,38.04
2017-06-02T08:45:36.997Z,37.84
2017-06-02T08:46:38.435Z,37.74
2017-06-02T08:47:39.873Z,37.74
2017-06-02T08:48:41.313Z,37.84
2017-06-02T08:49:42.755Z,37.84
2017-06-02T08:50:44.192Z,37.94
2017-06-02T08:51:45.626Z,37.84
2017-06-02T08:52:47.068Z,37.84
2017-06-02T08:53:48.504Z,37.96
2017-06-02T08:54:49.943Z,37.76
2017-06-02T08:55:51.378Z,37.76
2017-06-02T08:56:52.812Z,37.37
2017-06-02T08:57:54.245Z,37.37
2017-06-02T08:58:55.685Z,37.47
2017-06-02T08:59:57.120Z,37.96
2017-06-02T09:00:58.559Z,37.66
2017-06-02T09:01:59.996Z,37.86
2017-06-02T09:03:01.434Z,37.57
2017-06-02T09:04:02.872Z,37.57
2017-06-02T09:05:04.307Z,37.47
2017-06-02T09:06:05.747Z,37.57
2017-06-02T09:07:07.184Z,37.57
2017-06-02T09:08:08.629Z,37.47
2017-06-02T09:09:10.069Z,37.66
2017-06-02T09:10:11.505Z,37.59
2017-06-02T09:11:12.942Z,37.01
2017-06-02T09:12:14.390Z,37.10
2017-06-02T09:13:15.824Z,37.49
2017-06-02T09:14:17.267Z,37.49
2017-06-02T09:15:18.711Z,37.49
2017-06-02T09:16:20.151Z,37.01
2017-06-02T09:17:21.591Z,36.81
2017-06-02T09:18:23.035Z,36.71
2017-06-02T09:19:24.472Z,36.71
2017-06-02T09:20:25.907Z,36.52
2017-06-02T09:21:27.348Z,36.52
2017-06-02T09:22:28.845Z,36.71
2017-06-02T09:23:30.241Z,36.61
2017-06-02T09:24:31.676Z,36.61
2017-06-02T09:25:33.115Z,37.49
2017-06-02T09:26:34.552Z,36.91
2017-06-02T09:27:35.987Z,36.61
2017-06-02T09:28:37.423Z,36.61
2017-06-02T09:29:38.867Z,36.61
2017-06-02T09:30:40.305Z,36.54
2017-06-02T09:31:41.744Z,36.63
2017-06-02T09:32:43.191Z,36.42
2017-06-02T09:33:44.636Z,36.52
2017-06-02T09:34:46.075Z,36.54
2017-06-02T09:35:47.514Z,36.22
2017-06-02T09:36:48.954Z,36.71
2017-06-02T09:37:50.394Z,36.63
2017-06-02T09:38:51.834Z,36.63
2017-06-02T09:39:53.273Z,36.63
2017-06-02T09:40:54.717Z,36.34
2017-06-02T09:41:56.155Z,36.44
2017-06-02T09:42:57.593Z,36.54
2017-06-02T09:43:59.045Z,36.54
2017-06-02T09:45:00.487Z,36.44
2017-06-02T09:46:01.924Z,36.24
2017-06-02T09:47:03.356Z,36.54
2017-06-02T09:48:04.795Z,36.73
2017-06-02T09:49:06.233Z,36.54
2017-06-02T09:50:07.668Z,36.93
2017-06-02T09:51:09.105Z,36.34
2017-06-02T09:52:10.547Z,36.54
2017-06-02T09:53:11.982Z,36.24
2017-06-02T09:54:13.416Z,36.15
2017-06-02T09:55:14.853Z,36.34
2017-06-02T09:56:16.287Z,36.44
2017-06-02T09:57:17.732Z,36.34
2017-06-02T09:58:19.176Z,36.63
2017-06-02T09:59:20.616Z,36.34
2017-06-02T10:00:22.054Z,36.63
2017-06-02T10:01:23.488Z,36.15
2017-06-02T10:02:24.949Z,36.44
2017-06-02T10:03:26.388Z,36.44
2017-06-02T10:04:27.828Z,36.34
2017-06-02T10:05:29.265Z,36.15
2017-06-02T10:06:30.712Z,35.86
2017-06-02T10:07:32.144Z,35.78
2017-06-02T10:08:33.582Z,35.68
2017-06-02T10:09:35.015Z,35.68
2017-06-02T10:10:36.462Z,35.49
2017-06-02T10:11:37.897Z,35.49
2017-06-02T10:12:39.356Z,35.49
2017-06-02T10:13:40.803Z,35.58
2017-06-02T10:14:42.237Z,35.68
2017-06-02T10:15:43.684Z,35.97
2017-06-02T10:16:45.119Z,35.88
2017-06-02T10:17:46.558Z,35.58
2017-06-02T10:18:48.003Z,35.68
2017-06-02T10:19:49.440Z,35.88
2017-06-02T10:20:50.875Z,35.39
2017-06-02T10:21:52.311Z,35.58
2017-06-02T10:22:53.753Z,35.58
2017-06-02T10:23:55.204Z,35.58
2017-06-02T10:24:56.652Z,35.49
2017-06-02T10:25:58.088Z,35.49
2017-06-02T10:26:59.531Z,35.78
2017-06-02T10:28:00.963Z,35.39
2017-06-02T10:29:02.403Z,35.49
2017-06-02T10:30:03.843Z,35.10
2017-06-02T10:31:05.280Z,35.29
2017-06-02T10:32:06.729Z,35.29
2017-06-02T10:33:08.162Z,35.10
2017-06-02T10:34:09.606Z,35.19
2017-06-02T10:35:11.045Z,35.19
2017-06-02T10:36:12.487Z,35.29
2017-06-02T10:37:13.933Z,35.29
2017-06-02T10:38:15.376Z,34.90
2017-06-02T10:39:16.822Z,35.39
2017-06-02T10:40:18.258Z,35.29
2017-06-02T10:41:19.698Z,35.19
2017-06-02T10:42:21.139Z,35.19
2017-06-02T10:43:22.574Z,35.10
2017-06-02T10:44:24.016Z,35.10
2017-06-02T10:45:25.460Z,35.29
2017-06-02T10:46:26.894Z,35.10
2017-06-02T10:47:28.333Z,35.10
2017-06-02T10:48:29.780Z,35.00
2017-06-02T10:49:31.230Z,35.10
2017-06-02T10:50:32.663Z,35.00
2017-06-02T10:51:34.100Z,35.39
2017-06-02T10:52:35.533Z,35.78
2017-06-02T10:53:36.989Z,35.39
2017-06-02T10:54:38.414Z,35.49
2017-06-02T10:55:39.866Z,35.80
2017-06-02T10:56:41.387Z,35.50
2017-06-02T10:57:42.837Z,35.70
2017-06-02T10:58:44.267Z,35.60
2017-06-02T10:59:45.708Z,35.60
2017-06-02T11:00:47.144Z,35.50
2017-06-02T11:01:48.628Z,35.41
2017-06-02T11:02:50.067Z,35.21
2017-06-02T11:03:51.501Z,35.21
2017-06-02T11:04:52.941Z,35.21
2017-06-02T11:05:54.375Z,35.31
2017-06-02T11:06:55.820Z,35.31
2017-06-02T11:07:57.268Z,35.21
2017-06-02T11:08:58.706Z,35.11
2017-06-02T11:10:00.145Z,35.21
2017-06-02T11:11:01.577Z,35.11
2017-06-02T11:12:03.026Z,35.21
2017-06-02T11:13:04.471Z,35.21
2017-06-02T11:14:05.921Z,34.92
2017-06-02T11:15:07.352Z,35.11
2017-06-02T11:16:08.793Z,35.02
2017-06-02T11:17:10.242Z,35.03
2017-06-02T11:18:11.676Z,35.11
2017-06-02T11:19:13.117Z,34.82
2017-06-02T11:20:14.558Z,35.21
2017-06-02T11:21:16.004Z,35.31
2017-06-02T11:22:17.445Z,35.33
2017-06-02T11:23:18.886Z,35.23
2017-06-02T11:24:20.325Z,35.23
2017-06-02T11:25:21.761Z,35.13
2017-06-02T11:26:23.199Z,35.13
2017-06-02T11:27:24.688Z,35.23
2017-06-02T11:28:26.121Z,35.03
2017-06-02T11:29:27.563Z,35.03
2017-06-02T11:30:29.029Z,35.23
2017-06-02T11:31:30.487Z,35.13
2017-06-02T11:32:31.925Z,35.13
2017-06-02T11:33:33.370Z,34.94
2017-06-02T11:34:34.808Z,34.94
2017-06-02T11:35:36.249Z,35.03
2017-06-02T11:36:37.683Z,35.03
2017-06-02T11:37:39.126Z,35.03
2017-06-02T11:38:40.564Z,34.94
2017-06-02T11:39:42.001Z,35.03
2017-06-02T11:40:43.487Z,35.23
2017-06-02T11:41:44.941Z,34.84
2017-06-02T11:42:46.381Z,34.45
2017-06-02T11:43:47.820Z,35.13
2017-06-02T11:44:49.253Z,34.64
2017-06-02T11:45:50.696Z,34.55
2017-06-02T11:46:52.134Z,34.64
2017-06-02T11:47:53.572Z,34.66
2017-06-02T11:48:55.003Z,34.66
2017-06-02T11:49:57.135Z,34.95
2017-06-02T11:50:58.578Z,34.47
2017-06-02T11:52:00.018Z,34.66
2017-06-02T11:53:01.459Z,34.76
2017-06-02T11:54:02.911Z,34.35
2017-06-02T11:55:04.353Z,34.37
2017-06-02T11:56:05.791Z,34.27
2017-06-02T11:57:07.240Z,33.78
2017-06-02T11:58:08.677Z,34.08
2017-06-02T11:59:10.119Z,33.98
2017-06-02T12:00:11.557Z,33.88
2017-06-02T12:01:13.015Z,33.29
2017-06-02T12:02:14.454Z,33.39
2017-06-02T12:03:15.888Z,33.98
2017-06-02T12:04:17.325Z,33.59
2017-06-02T12:05:18.758Z,32.91
2017-06-02T12:06:20.202Z,33.41
2017-06-02T12:07:21.659Z,33.70
2017-06-02T12:08:23.096Z,33.02
2017-06-02T12:09:24.532Z,33.02
2017-06-02T12:10:25.972Z,33.70
2017-06-02T12:11:27.404Z,33.22
2017-06-02T12:12:28.841Z,33.51
2017-06-02T12:13:30.294Z,33.90
2017-06-02T12:14:31.744Z,33.02
2017-06-02T12:15:33.182Z,33.51
2017-06-02T12:16:34.622Z,33.61
2017-06-02T12:17:36.067Z,33.12
2017-06-02T12:18:37.506Z,33.22
2017-06-02T12:19:38.943Z,33.31
2017-06-02T12:20:40.387Z,33.31
2017-06-02T12:21:41.825Z,33.70
2017-06-02T12:22:43.263Z,33.80
2017-06-02T12:23:44.705Z,34.19
2017-06-02T12:24:46.147Z,34.00
2017-06-02T12:25:47.580Z,34.39
2017-06-02T12:26:49.019Z,33.90
2017-06-02T12:27:50.462Z,34.48
2017-06-02T12:28:51.907Z,34.39
2017-06-02T12:29:53.349Z,34.58
2017-06-02T12:30:54.784Z,34.00
2017-06-02T12:31:56.227Z,34.21
2017-06-02T12:32:57.671Z,34.21
2017-06-02T12:33:59.107Z,34.01
2017-06-02T12:35:00.545Z,33.92
2017-06-02T12:36:01.990Z,33.62
2017-06-02T12:37:03.427Z,33.92
2017-06-02T12:38:04.871Z,33.72
2017-06-02T12:39:06.311Z,34.01
2017-06-02T12:40:07.767Z,33.72
2017-06-02T12:41:09.207Z,33.53
2017-06-02T12:42:10.654Z,34.40
2017-06-02T12:43:12.094Z,33.14
2017-06-02T12:44:13.533Z,33.33
2017-06-02T12:45:14.973Z,33.23
2017-06-02T12:46:16.439Z,33.23
2017-06-02T12:47:17.889Z,33.33
2017-06-02T12:48:19.330Z,31.48
2017-06-02T12:49:21.803Z,33.62
2017-06-02T12:50:23.239Z,31.96
2017-06-02T12:51:24.680Z,31.87
2017-06-02T12:52:26.126Z,31.09
2017-06-02T12:53:27.566Z,31.67
2017-06-02T12:54:28.999Z,31.77
2017-06-02T12:55:30.443Z,31.67
2017-06-02T12:56:31.886Z,31.57
2017-06-02T12:57:33.325Z,31.38
2017-06-02T12:58:34.767Z,31.07
2017-06-02T12:59:36.209Z,31.76
2017-06-02T13:00:37.644Z,31.66
2017-06-02T13:01:39.114Z,31.76
2017-06-02T13:02:40.546Z,32.24
2017-06-02T13:03:41.984Z,32.06
2017-06-02T13:04:43.431Z,31.96
2017-06-02T13:05:44.872Z,31.67
2017-06-02T13:06:46.308Z,31.57
2017-06-02T13:07:47.765Z,32.55
2017-06-02T13:08:49.196Z,32.35
2017-06-02T13:09:50.636Z,31.87
2017-06-02T13:10:52.085Z,31.77